Terminal Aerodrome Forecast
Issued by NWS Wilmington, NC

Home | Current Version | Previous Version | Text Only | Print | Product List | Glossary On
Versions: 1 2 3 4 5 6 7 8 9 10 11 12 13 14 15 16 17 18 19 20
746
FTUS42 KILM 092320
TAFFLO
TAF
KFLO 092320Z 1000/1024 28013G24KT P6SM BKN050 BKN110
     FM100100 28008KT P6SM SCT050 BKN100
     FM100800 27007KT P6SM SKC
     FM101300 27016G23KT P6SM SKC=

USA.gov is the U.S. government's official web portal to all federal, state and local government web resources and services.